createdAt,value
2022-10-24T00:02:49.761Z,13.66
2022-10-24T00:07:01.623Z,13.69
2022-10-24T00:11:14.655Z,13.73
2022-10-24T00:15:22.985Z,13.78
2022-10-24T00:19:31.611Z,13.78
2022-10-24T00:23:40.057Z,13.76
2022-10-24T00:27:47.624Z,13.75
2022-10-24T00:31:55.850Z,13.75
2022-10-24T00:36:03.464Z,13.75
2022-10-24T00:40:13.499Z,13.76
2022-10-24T00:44:24.388Z,13.77
2022-10-24T00:48:35.990Z,13.71
2022-10-24T00:52:47.505Z,13.67
2022-10-24T00:57:00.865Z,13.62
2022-10-24T01:01:09.631Z,13.62
2022-10-24T01:05:19.352Z,13.62
2022-10-24T01:09:50.896Z,13.64
2022-10-24T01:14:02.020Z,13.64
2022-10-24T01:18:14.270Z,13.60
2022-10-24T01:22:25.061Z,13.58
2022-10-24T01:26:47.256Z,13.54
2022-10-24T01:31:01.107Z,13.49
2022-10-24T01:35:16.974Z,13.48
2022-10-24T01:39:25.333Z,13.45
2022-10-24T01:43:36.394Z,13.40
2022-10-24T01:47:48.119Z,13.36
2022-10-24T01:51:58.592Z,13.33
2022-10-24T01:56:07.483Z,13.34
2022-10-24T02:00:22.687Z,13.39
2022-10-24T02:04:33.696Z,13.43
2022-10-24T02:08:46.151Z,13.44
2022-10-24T02:12:57.313Z,13.42
2022-10-24T02:17:05.673Z,13.38
2022-10-24T02:21:25.612Z,13.34
2022-10-24T02:25:38.196Z,13.33
2022-10-24T02:29:52.476Z,13.37
2022-10-24T02:34:00.805Z,13.44
2022-10-24T02:38:16.402Z,13.54
2022-10-24T02:42:25.748Z,13.62
2022-10-24T02:46:33.628Z,13.67
2022-10-24T02:50:43.262Z,13.70
2022-10-24T02:54:51.563Z,13.75
2022-10-24T02:58:59.668Z,13.81
2022-10-24T03:03:07.626Z,13.83
2022-10-24T03:07:15.161Z,13.85
2022-10-24T03:11:23.121Z,13.84
2022-10-24T03:15:30.923Z,13.85
2022-10-24T03:19:39.166Z,13.87
2022-10-24T03:23:47.240Z,13.91
2022-10-24T03:27:55.054Z,13.92
2022-10-24T03:32:03.065Z,13.92
2022-10-24T03:36:11.290Z,13.91
2022-10-24T03:40:18.926Z,13.90
2022-10-24T03:44:27.545Z,13.92
2022-10-24T03:48:35.391Z,13.94
2022-10-24T03:52:45.505Z,13.95
2022-10-24T03:56:53.675Z,13.95
2022-10-24T04:01:01.628Z,13.94
2022-10-24T04:05:11.133Z,13.93
2022-10-24T04:09:19.247Z,13.96
2022-10-24T04:13:27.664Z,14.00
2022-10-24T04:17:35.620Z,14.04
2022-10-24T04:21:44.096Z,14.06
2022-10-24T04:25:52.344Z,14.06
2022-10-24T04:30:00.197Z,14.06
2022-10-24T04:34:08.165Z,14.08
2022-10-24T04:38:15.764Z,14.11
2022-10-24T04:42:26.217Z,14.13
2022-10-24T04:46:34.500Z,14.13
2022-10-24T04:50:44.611Z,14.11
2022-10-24T04:54:52.300Z,14.11
2022-10-24T04:59:00.208Z,14.13
2022-10-24T05:03:07.910Z,14.16
2022-10-24T05:07:16.150Z,14.18
2022-10-24T05:11:24.144Z,14.18
2022-10-24T05:15:32.200Z,14.17
2022-10-24T05:19:40.247Z,14.16
2022-10-24T05:23:48.373Z,14.17
2022-10-24T05:27:57.119Z,14.20
2022-10-24T05:32:05.013Z,14.25
2022-10-24T05:36:13.760Z,14.26
2022-10-24T05:40:21.593Z,14.26
2022-10-24T05:44:29.457Z,14.24
2022-10-24T05:48:37.444Z,14.22
2022-10-24T05:52:47.114Z,14.23
2022-10-24T05:56:56.175Z,14.25
2022-10-24T06:01:05.053Z,14.27
2022-10-24T06:05:14.236Z,14.30
2022-10-24T06:09:22.555Z,14.36
2022-10-24T06:13:35.183Z,14.43
2022-10-24T06:17:44.862Z,14.52
2022-10-24T06:21:52.614Z,14.60
2022-10-24T06:26:01.381Z,14.67
2022-10-24T06:30:12.257Z,14.70
2022-10-24T06:38:33.944Z,14.81
2022-10-24T06:42:43.340Z,14.87
2022-10-24T06:46:51.080Z,14.93
2022-10-24T06:51:00.416Z,14.97
2022-10-24T06:55:09.770Z,14.99
2022-10-24T06:59:18.908Z,14.99
2022-10-24T07:03:27.886Z,15.00
2022-10-24T07:07:35.828Z,15.04
2022-10-24T07:11:43.378Z,15.08
2022-10-24T07:15:55.172Z,15.15
2022-10-24T07:20:04.382Z,15.23
2022-10-24T07:24:14.803Z,15.31
2022-10-24T07:28:23.610Z,15.39
2022-10-24T07:32:30.922Z,15.46
2022-10-24T07:36:41.543Z,15.55
2022-10-24T07:40:54.432Z,15.64
2022-10-24T07:45:02.819Z,15.75
2022-10-24T07:49:11.502Z,15.86
2022-10-24T07:53:19.375Z,15.95
2022-10-24T07:57:27.639Z,16.03
2022-10-24T08:01:35.798Z,16.09
2022-10-24T08:05:44.093Z,16.14
2022-10-24T08:09:52.353Z,16.22
2022-10-24T08:14:02.788Z,16.30
2022-10-24T08:18:10.813Z,16.37
2022-10-24T08:22:18.991Z,16.42
2022-10-24T08:26:28.390Z,16.47
2022-10-24T08:30:36.110Z,16.51
2022-10-24T08:34:44.039Z,16.57
2022-10-24T08:38:51.929Z,16.63
2022-10-24T08:42:59.451Z,16.70
2022-10-24T08:47:10.564Z,16.78
2022-10-24T08:51:31.055Z,16.86
2022-10-24T08:55:50.236Z,16.93
2022-10-24T09:00:01.379Z,16.97
2022-10-24T09:04:13.256Z,17.00
2022-10-24T09:08:26.415Z,17.05
2022-10-24T09:12:40.433Z,17.13
2022-10-24T09:16:50.132Z,17.23
2022-10-24T09:20:58.127Z,17.31
2022-10-24T09:25:08.244Z,17.40
2022-10-24T09:29:18.535Z,17.52
2022-10-24T09:33:30.521Z,17.64
2022-10-24T09:37:47.120Z,17.78
2022-10-24T09:41:55.640Z,17.91
2022-10-24T09:46:09.043Z,18.01
2022-10-24T09:50:24.799Z,18.11
2022-10-24T09:54:35.386Z,18.18
2022-10-24T09:58:43.969Z,18.25
2022-10-24T10:03:03.109Z,18.36
2022-10-24T10:07:14.627Z,18.51
2022-10-24T10:11:30.904Z,18.65
2022-10-24T10:15:41.460Z,18.76
2022-10-24T10:19:49.555Z,18.85
2022-10-24T10:24:02.417Z,18.91
2022-10-24T10:28:23.360Z,18.97
2022-10-24T10:32:35.004Z,19.04
2022-10-24T10:36:48.270Z,19.09
2022-10-24T10:41:00.849Z,19.14
2022-10-24T10:45:19.638Z,19.17
2022-10-24T10:49:31.631Z,19.22
2022-10-24T10:53:43.886Z,19.33
2022-10-24T10:57:55.484Z,19.47
2022-10-24T11:02:10.386Z,19.60
2022-10-24T11:06:28.564Z,19.66
2022-10-24T11:10:39.606Z,19.67
2022-10-24T11:14:50.140Z,19.64
2022-10-24T11:19:01.314Z,19.66
2022-10-24T11:23:15.599Z,19.71
2022-10-24T11:27:27.837Z,19.76
2022-10-24T11:31:38.850Z,19.79
2022-10-24T11:36:01.662Z,19.82
2022-10-24T11:40:14.790Z,19.85
2022-10-24T11:44:38.115Z,19.91
2022-10-24T11:53:06.584Z,20.01
2022-10-24T11:57:17.130Z,20.06
2022-10-24T12:01:50.469Z,20.13
2022-10-24T12:06:21.737Z,20.21
2022-10-24T12:10:42.212Z,20.28
2022-10-24T12:15:00.921Z,20.32
2022-10-24T12:19:12.276Z,20.35
2022-10-24T12:23:24.904Z,20.37
2022-10-24T12:27:36.307Z,20.42
2022-10-24T12:31:44.193Z,20.50
2022-10-24T12:35:56.689Z,20.55
2022-10-24T12:40:41.802Z,20.56
2022-10-24T12:44:51.443Z,20.65
2022-10-24T12:49:18.385Z,20.73
2022-10-24T12:53:43.972Z,20.79
2022-10-24T12:57:51.793Z,20.71
2022-10-24T13:02:22.547Z,20.60
2022-10-24T13:06:34.335Z,20.48
2022-10-24T13:10:47.676Z,20.35
2022-10-24T13:15:18.838Z,20.22
2022-10-24T13:19:27.341Z,20.12
2022-10-24T13:23:35.974Z,20.06
2022-10-24T13:27:43.973Z,19.96
2022-10-24T13:31:56.306Z,19.87
2022-10-24T13:36:16.398Z,19.75
2022-10-24T13:40:30.639Z,19.65
2022-10-24T13:44:46.263Z,19.57
2022-10-24T13:48:54.428Z,19.49
2022-10-24T13:53:04.894Z,19.45
2022-10-24T13:57:30.909Z,19.45
2022-10-24T14:05:51.701Z,19.51
2022-10-24T14:10:02.066Z,19.50
2022-10-24T14:14:23.939Z,19.48
2022-10-24T14:18:33.243Z,19.43
2022-10-24T14:22:42.853Z,19.37
2022-10-24T14:26:53.512Z,19.31
2022-10-24T14:31:03.119Z,19.27
2022-10-24T14:35:15.603Z,19.24
2022-10-24T14:39:25.201Z,19.18
2022-10-24T14:43:34.012Z,19.11
2022-10-24T14:47:46.041Z,19.04
2022-10-24T14:51:56.427Z,18.97
2022-10-24T14:56:04.106Z,18.92
2022-10-24T15:00:23.807Z,18.87
2022-10-24T15:04:40.400Z,18.83
2022-10-24T15:08:51.331Z,18.79
2022-10-24T15:13:05.051Z,18.75
2022-10-24T15:17:32.491Z,18.68
2022-10-24T15:21:44.863Z,18.60
2022-10-24T15:26:06.052Z,18.54
2022-10-24T15:30:17.609Z,18.50
2022-10-24T15:34:28.193Z,18.49
2022-10-24T15:38:40.486Z,18.45
2022-10-24T15:42:51.530Z,18.42
2022-10-24T15:46:59.753Z,18.39
2022-10-24T15:51:07.968Z,18.27
2022-10-24T15:55:20.004Z,18.18
2022-10-24T15:59:27.807Z,18.14
2022-10-24T16:03:37.480Z,18.13
2022-10-24T16:07:45.925Z,18.09
2022-10-24T16:11:54.812Z,17.99
2022-10-24T16:16:02.898Z,17.89
2022-10-24T16:20:12.151Z,17.85
2022-10-24T16:24:19.938Z,17.84
2022-10-24T16:28:29.228Z,17.82
2022-10-24T16:32:37.513Z,17.76
2022-10-24T16:36:45.914Z,17.67
2022-10-24T16:40:56.016Z,17.64
2022-10-24T16:45:05.578Z,17.63
2022-10-24T16:49:13.439Z,17.62
2022-10-24T16:53:21.895Z,17.58
2022-10-24T16:57:37.053Z,17.53
2022-10-24T17:01:45.179Z,17.45
2022-10-24T17:05:53.036Z,17.41
2022-10-24T17:10:01.225Z,17.41
2022-10-24T17:14:10.752Z,17.39
2022-10-24T17:18:20.400Z,17.25
2022-10-24T17:22:28.460Z,17.11
2022-10-24T17:27:00.885Z,17.10
2022-10-24T17:31:09.501Z,17.07
2022-10-24T17:35:20.849Z,17.04
2022-10-24T17:39:32.442Z,17.05
2022-10-24T17:43:41.989Z,17.06
2022-10-24T17:47:50.193Z,17.05
2022-10-24T17:51:58.338Z,17.07
2022-10-24T17:56:07.006Z,17.09
2022-10-24T18:00:16.936Z,17.09
2022-10-24T18:04:24.436Z,17.04
2022-10-24T18:08:32.776Z,16.99
2022-10-24T18:12:42.014Z,16.96
2022-10-24T18:16:50.187Z,16.94
2022-10-24T18:21:08.939Z,16.92
2022-10-24T18:25:21.774Z,16.92
2022-10-24T18:29:31.382Z,16.93
2022-10-24T18:33:42.213Z,16.93
2022-10-24T18:37:49.985Z,16.91
2022-10-24T18:42:03.040Z,16.87
2022-10-24T18:46:14.083Z,16.82
2022-10-24T18:50:24.223Z,16.79
2022-10-24T18:54:33.011Z,16.78
2022-10-24T18:58:41.685Z,16.79
2022-10-24T19:03:05.587Z,16.81
2022-10-24T19:07:13.662Z,16.81
2022-10-24T19:11:24.572Z,16.80
2022-10-24T19:15:33.211Z,16.78
2022-10-24T19:19:41.798Z,16.76
2022-10-24T19:23:49.609Z,16.74
2022-10-24T19:27:57.820Z,16.73
2022-10-24T19:32:09.878Z,16.72
2022-10-24T19:36:19.364Z,16.69
2022-10-24T19:40:27.777Z,16.65
2022-10-24T19:44:35.571Z,16.62
2022-10-24T19:48:45.767Z,16.59
2022-10-24T19:52:58.869Z,16.55
2022-10-24T19:57:09.847Z,16.53
2022-10-24T20:01:26.087Z,16.52
2022-10-24T20:05:36.551Z,16.48
2022-10-24T20:09:50.529Z,16.45
2022-10-24T20:13:58.768Z,16.42
2022-10-24T20:18:06.433Z,16.41
2022-10-24T20:22:14.449Z,16.40
2022-10-24T20:26:24.060Z,16.41
2022-10-24T20:30:32.416Z,16.41
2022-10-24T20:34:40.230Z,16.43
2022-10-24T20:38:56.704Z,16.41
2022-10-24T20:43:07.334Z,16.37
2022-10-24T20:47:15.185Z,16.35
2022-10-24T20:51:24.165Z,16.33
2022-10-24T20:55:43.860Z,16.33
2022-10-24T20:59:52.841Z,16.33
2022-10-24T21:04:01.532Z,16.30
2022-10-24T21:08:09.699Z,16.27
2022-10-24T21:12:17.615Z,16.22
2022-10-24T21:16:26.854Z,16.18
2022-10-24T21:20:35.014Z,16.14
2022-10-24T21:24:42.902Z,16.12
2022-10-24T21:28:54.016Z,16.10
2022-10-24T21:33:10.980Z,16.06
2022-10-24T21:37:18.660Z,16.01
2022-10-24T21:41:26.846Z,15.95
2022-10-24T21:45:35.625Z,15.90
2022-10-24T21:49:44.000Z,15.86
2022-10-24T21:53:53.242Z,15.85
2022-10-24T21:58:01.365Z,15.82
2022-10-24T22:02:09.977Z,15.81
2022-10-24T22:06:19.237Z,15.80
2022-10-24T22:10:27.052Z,15.77
2022-10-24T22:14:36.280Z,15.73
2022-10-24T22:18:45.094Z,15.68
2022-10-24T22:22:53.171Z,15.63
2022-10-24T22:27:00.857Z,15.62
2022-10-24T22:31:10.666Z,15.62
2022-10-24T22:35:20.719Z,15.62
2022-10-24T22:39:31.016Z,15.62
2022-10-24T22:43:40.062Z,15.60
2022-10-24T22:58:58.264Z,15.40
2022-10-24T23:03:14.137Z,15.37
2022-10-24T23:07:27.636Z,15.35
2022-10-24T23:11:37.278Z,15.34
2022-10-24T23:15:45.761Z,15.33
2022-10-24T23:19:55.638Z,15.29
2022-10-24T23:24:04.481Z,15.24
2022-10-24T23:28:19.843Z,15.17
2022-10-24T23:32:30.155Z,15.11
2022-10-24T23:36:38.929Z,15.07
2022-10-24T23:40:48.111Z,15.04
2022-10-24T23:44:56.804Z,15.02
2022-10-24T23:49:22.368Z,15.00
2022-10-24T23:53:36.515Z,14.95
2022-10-24T23:57:45.278Z,14.90
